sensor_id;sensor_type;location;lat;lon;timestamp;temperature;humidity
843;DHT22;407;48.884;9.126;2023-07-31T00:00:24;17.20;1.00
843;DHT22;407;48.884;9.126;2023-07-31T00:02:49;17.10;99.90
843;DHT22;407;48.884;9.126;2023-07-31T00:05:15;17.00;99.90
843;DHT22;407;48.884;9.126;2023-07-31T00:07:41;16.90;99.90
843;DHT22;407;48.884;9.126;2023-07-31T00:10:06;16.80;1.00
843;DHT22;407;48.884;9.126;2023-07-31T00:12:32;16.80;99.90
843;DHT22;407;48.884;9.126;2023-07-31T00:14:58;16.80;1.00
843;DHT22;407;48.884;9.126;2023-07-31T00:17:23;16.80;1.00
843;DHT22;407;48.884;9.126;2023-07-31T00:19:49;16.90;1.00
843;DHT22;407;48.884;9.126;2023-07-31T00:22:16;17.00;1.00
843;DHT22;407;48.884;9.126;2023-07-31T00:24:41;17.00;1.00
843;DHT22;407;48.884;9.126;2023-07-31T00:27:07;16.90;1.00
843;DHT22;407;48.884;9.126;2023-07-31T00:29:32;16.90;99.90
843;DHT22;407;48.884;9.126;2023-07-31T00:31:58;16.90;99.90
843;DHT22;407;48.884;9.126;2023-07-31T00:34:23;16.80;1.00
843;DHT22;407;48.884;9.126;2023-07-31T00:36:49;16.90;1.00
843;DHT22;407;48.884;9.126;2023-07-31T00:39:14;16.70;99.90
843;DHT22;407;48.884;9.126;2023-07-31T00:41:40;16.60;1.00
843;DHT22;407;48.884;9.126;2023-07-31T00:44:05;16.50;1.00
843;DHT22;407;48.884;9.126;2023-07-31T00:46:31;16.50;99.90
843;DHT22;407;48.884;9.126;2023-07-31T00:48:57;16.50;99.90
843;DHT22;407;48.884;9.126;2023-07-31T00:51:22;16.50;1.00
843;DHT22;407;48.884;9.126;2023-07-31T00:53:48;16.40;1.00
843;DHT22;407;48.884;9.126;2023-07-31T00:56:14;16.40;1.00
843;DHT22;407;48.884;9.126;2023-07-31T00:58:40;16.40;1.00
843;DHT22;407;48.884;9.126;2023-07-31T01:01:06;16.40;99.90
843;DHT22;407;48.884;9.126;2023-07-31T01:03:32;16.30;99.90
843;DHT22;407;48.884;9.126;2023-07-31T01:11:52;16.20;99.90
843;DHT22;407;48.884;9.126;2023-07-31T01:14:18;16.10;99.90
843;DHT22;407;48.884;9.126;2023-07-31T01:16:43;16.00;1.00
843;DHT22;407;48.884;9.126;2023-07-31T01:19:09;16.10;99.90
843;DHT22;407;48.884;9.126;2023-07-31T01:26:40;16.00;99.90
843;DHT22;407;48.884;9.126;2023-07-31T01:29:15;16.10;1.00
843;DHT22;407;48.884;9.126;2023-07-31T01:31:45;16.00;96.80
843;DHT22;407;48.884;9.126;2023-07-31T01:34:14;16.00;99.90
843;DHT22;407;48.884;9.126;2023-07-31T01:36:42;16.00;1.00
843;DHT22;407;48.884;9.126;2023-07-31T01:39:07;16.10;99.90
843;DHT22;407;48.884;9.126;2023-07-31T01:41:33;16.10;99.90
843;DHT22;407;48.884;9.126;2023-07-31T01:43:59;16.10;1.00
843;DHT22;407;48.884;9.126;2023-07-31T01:46:24;16.10;99.90
843;DHT22;407;48.884;9.126;2023-07-31T01:48:50;16.10;99.90
843;DHT22;407;48.884;9.126;2023-07-31T01:51:15;16.00;1.00
843;DHT22;407;48.884;9.126;2023-07-31T01:53:41;16.10;99.90
843;DHT22;407;48.884;9.126;2023-07-31T01:56:06;16.10;99.90
843;DHT22;407;48.884;9.126;2023-07-31T01:58:32;16.10;99.90
843;DHT22;407;48.884;9.126;2023-07-31T02:00:57;16.10;99.90
843;DHT22;407;48.884;9.126;2023-07-31T02:03:23;16.10;99.90
843;DHT22;407;48.884;9.126;2023-07-31T02:05:49;16.10;99.90
843;DHT22;407;48.884;9.126;2023-07-31T02:08:15;16.20;99.90
843;DHT22;407;48.884;9.126;2023-07-31T02:10:41;16.20;99.90
843;DHT22;407;48.884;9.126;2023-07-31T02:13:07;16.20;1.00
843;DHT22;407;48.884;9.126;2023-07-31T02:15:32;16.10;99.90
843;DHT22;407;48.884;9.126;2023-07-31T02:17:58;16.10;99.90
843;DHT22;407;48.884;9.126;2023-07-31T02:20:24;16.00;99.90
843;DHT22;407;48.884;9.126;2023-07-31T02:22:50;16.00;99.90
843;DHT22;407;48.884;9.126;2023-07-31T02:25:15;16.10;99.90
843;DHT22;407;48.884;9.126;2023-07-31T02:27:41;16.10;99.90
843;DHT22;407;48.884;9.126;2023-07-31T02:30:07;16.10;73.20
843;DHT22;407;48.884;9.126;2023-07-31T02:32:32;16.10;99.90
843;DHT22;407;48.884;9.126;2023-07-31T02:34:58;16.10;99.90
843;DHT22;407;48.884;9.126;2023-07-31T02:37:24;16.10;99.90
843;DHT22;407;48.884;9.126;2023-07-31T02:39:50;16.10;60.70
843;DHT22;407;48.884;9.126;2023-07-31T02:42:15;16.10;1.00
843;DHT22;407;48.884;9.126;2023-07-31T02:44:41;16.10;1.00
843;DHT22;407;48.884;9.126;2023-07-31T02:47:06;16.00;99.90
843;DHT22;407;48.884;9.126;2023-07-31T02:49:32;16.00;99.90
843;DHT22;407;48.884;9.126;2023-07-31T02:51:57;16.00;99.90
843;DHT22;407;48.884;9.126;2023-07-31T02:54:23;16.10;99.90
843;DHT22;407;48.884;9.126;2023-07-31T02:56:48;16.10;99.90
843;DHT22;407;48.884;9.126;2023-07-31T02:59:14;16.10;99.90
843;DHT22;407;48.884;9.126;2023-07-31T03:01:39;16.10;99.90
843;DHT22;407;48.884;9.126;2023-07-31T03:04:05;16.10;39.60
843;DHT22;407;48.884;9.126;2023-07-31T03:06:31;16.00;99.90
843;DHT22;407;48.884;9.126;2023-07-31T03:08:56;16.00;99.90
843;DHT22;407;48.884;9.126;2023-07-31T03:11:22;16.00;99.90
843;DHT22;407;48.884;9.126;2023-07-31T03:13:47;16.00;99.90
843;DHT22;407;48.884;9.126;2023-07-31T03:16:13;16.00;1.00
843;DHT22;407;48.884;9.126;2023-07-31T03:18:38;16.00;1.00
843;DHT22;407;48.884;9.126;2023-07-31T03:21:04;15.90;1.00
843;DHT22;407;48.884;9.126;2023-07-31T03:23:30;15.90;1.00
843;DHT22;407;48.884;9.126;2023-07-31T03:26:00;15.90;1.00
843;DHT22;407;48.884;9.126;2023-07-31T03:28:26;15.90;99.90
843;DHT22;407;48.884;9.126;2023-07-31T03:30:52;16.00;1.00
843;DHT22;407;48.884;9.126;2023-07-31T03:33:18;16.00;1.00
843;DHT22;407;48.884;9.126;2023-07-31T03:35:44;15.90;1.00
843;DHT22;407;48.884;9.126;2023-07-31T03:38:10;15.90;1.00
843;DHT22;407;48.884;9.126;2023-07-31T03:40:35;16.00;99.90
843;DHT22;407;48.884;9.126;2023-07-31T03:43:01;15.90;99.90
843;DHT22;407;48.884;9.126;2023-07-31T03:45:27;15.90;1.00
843;DHT22;407;48.884;9.126;2023-07-31T03:47:52;15.90;1.00
843;DHT22;407;48.884;9.126;2023-07-31T03:50:19;15.80;1.00
843;DHT22;407;48.884;9.126;2023-07-31T03:52:45;15.80;1.00
843;DHT22;407;48.884;9.126;2023-07-31T03:55:11;15.80;1.00
843;DHT22;407;48.884;9.126;2023-07-31T03:57:36;15.80;1.00
843;DHT22;407;48.884;9.126;2023-07-31T04:00:02;15.70;1.00
843;DHT22;407;48.884;9.126;2023-07-31T04:02:27;15.70;1.00
843;DHT22;407;48.884;9.126;2023-07-31T04:04:53;15.80;1.00
843;DHT22;407;48.884;9.126;2023-07-31T04:07:18;15.70;1.00
843;DHT22;407;48.884;9.126;2023-07-31T04:09:44;15.70;1.00
843;DHT22;407;48.884;9.126;2023-07-31T04:12:09;15.90;1.00
843;DHT22;407;48.884;9.126;2023-07-31T04:14:35;16.00;99.90
843;DHT22;407;48.884;9.126;2023-07-31T04:17:01;16.10;99.90
843;DHT22;407;48.884;9.126;2023-07-31T04:19:26;16.20;99.90
843;DHT22;407;48.884;9.126;2023-07-31T04:21:52;16.30;1.00
843;DHT22;407;48.884;9.126;2023-07-31T04:24:17;16.30;1.00
843;DHT22;407;48.884;9.126;2023-07-31T04:26:50;16.40;1.00
843;DHT22;407;48.884;9.126;2023-07-31T04:29:15;16.60;1.00
843;DHT22;407;48.884;9.126;2023-07-31T04:31:41;16.50;99.90
843;DHT22;407;48.884;9.126;2023-07-31T04:34:07;16.60;99.90
843;DHT22;407;48.884;9.126;2023-07-31T04:36:33;16.70;99.90
843;DHT22;407;48.884;9.126;2023-07-31T04:38:59;16.90;1.00
843;DHT22;407;48.884;9.126;2023-07-31T04:41:24;17.00;1.00
843;DHT22;407;48.884;9.126;2023-07-31T04:43:50;17.10;99.90
843;DHT22;407;48.884;9.126;2023-07-31T04:46:15;17.30;1.00
843;DHT22;407;48.884;9.126;2023-07-31T04:48:41;17.40;99.90
843;DHT22;407;48.884;9.126;2023-07-31T04:51:06;17.50;99.90
843;DHT22;407;48.884;9.126;2023-07-31T04:53:32;17.50;99.90
843;DHT22;407;48.884;9.126;2023-07-31T04:55:58;17.50;1.00
843;DHT22;407;48.884;9.126;2023-07-31T04:58:23;17.60;1.00
843;DHT22;407;48.884;9.126;2023-07-31T05:00:49;17.50;1.00
843;DHT22;407;48.884;9.126;2023-07-31T05:03:14;17.40;16.80
843;DHT22;407;48.884;9.126;2023-07-31T05:05:39;17.40;99.90
843;DHT22;407;48.884;9.126;2023-07-31T05:08:05;17.40;1.00
843;DHT22;407;48.884;9.126;2023-07-31T05:10:30;17.40;1.00
843;DHT22;407;48.884;9.126;2023-07-31T05:12:56;17.40;1.00
843;DHT22;407;48.884;9.126;2023-07-31T05:15:22;17.40;1.00
843;DHT22;407;48.884;9.126;2023-07-31T05:17:48;17.40;99.90
843;DHT22;407;48.884;9.126;2023-07-31T05:20:14;17.40;1.00
843;DHT22;407;48.884;9.126;2023-07-31T05:22:40;17.50;1.00
843;DHT22;407;48.884;9.126;2023-07-31T05:25:06;17.70;99.90
843;DHT22;407;48.884;9.126;2023-07-31T05:27:32;18.10;1.00
843;DHT22;407;48.884;9.126;2023-07-31T05:29:58;18.60;1.00
843;DHT22;407;48.884;9.126;2023-07-31T05:32:23;19.30;99.90
843;DHT22;407;48.884;9.126;2023-07-31T05:34:51;19.70;87.00
843;DHT22;407;48.884;9.126;2023-07-31T05:37:17;20.40;1.00
843;DHT22;407;48.884;9.126;2023-07-31T05:39:43;21.00;1.00
843;DHT22;407;48.884;9.126;2023-07-31T05:42:08;20.80;1.00
843;DHT22;407;48.884;9.126;2023-07-31T05:44:34;20.80;1.00
843;DHT22;407;48.884;9.126;2023-07-31T05:47:00;20.50;1.00
843;DHT22;407;48.884;9.126;2023-07-31T05:49:25;19.90;1.00
843;DHT22;407;48.884;9.126;2023-07-31T05:51:51;19.80;1.00
843;DHT22;407;48.884;9.126;2023-07-31T05:54:16;19.40;1.00
843;DHT22;407;48.884;9.126;2023-07-31T05:56:42;19.10;1.00
843;DHT22;407;48.884;9.126;2023-07-31T05:59:09;18.90;1.00
843;DHT22;407;48.884;9.126;2023-07-31T06:01:35;18.70;1.00
843;DHT22;407;48.884;9.126;2023-07-31T06:04:01;18.70;3.60
843;DHT22;407;48.884;9.126;2023-07-31T06:06:28;18.70;99.00
843;DHT22;407;48.884;9.126;2023-07-31T06:08:53;18.90;55.40
843;DHT22;407;48.884;9.126;2023-07-31T06:11:20;19.20;10.90
843;DHT22;407;48.884;9.126;2023-07-31T06:13:46;19.30;4.10
843;DHT22;407;48.884;9.126;2023-07-31T06:16:13;19.50;1.00
843;DHT22;407;48.884;9.126;2023-07-31T06:18:39;19.90;1.00
843;DHT22;407;48.884;9.126;2023-07-31T06:21:05;20.80;1.00
843;DHT22;407;48.884;9.126;2023-07-31T06:23:30;21.90;1.00
843;DHT22;407;48.884;9.126;2023-07-31T06:25:56;22.50;1.00
843;DHT22;407;48.884;9.126;2023-07-31T06:28:26;22.50;1.00
843;DHT22;407;48.884;9.126;2023-07-31T06:30:52;23.20;1.00
843;DHT22;407;48.884;9.126;2023-07-31T06:33:17;23.00;1.00
843;DHT22;407;48.884;9.126;2023-07-31T06:35:43;23.00;1.00
843;DHT22;407;48.884;9.126;2023-07-31T06:38:09;23.30;99.90
843;DHT22;407;48.884;9.126;2023-07-31T06:40:34;22.50;99.90
843;DHT22;407;48.884;9.126;2023-07-31T06:43:00;21.80;99.90
843;DHT22;407;48.884;9.126;2023-07-31T06:45:31;21.30;99.90
843;DHT22;407;48.884;9.126;2023-07-31T06:47:57;20.80;99.90
843;DHT22;407;48.884;9.126;2023-07-31T06:50:27;21.20;1.00
843;DHT22;407;48.884;9.126;2023-07-31T06:52:52;22.40;99.90
843;DHT22;407;48.884;9.126;2023-07-31T06:55:21;23.30;99.90
843;DHT22;407;48.884;9.126;2023-07-31T06:57:52;24.00;99.90
843;DHT22;407;48.884;9.126;2023-07-31T07:00:20;24.70;99.90
843;DHT22;407;48.884;9.126;2023-07-31T07:02:46;24.30;99.90
843;DHT22;407;48.884;9.126;2023-07-31T07:05:18;23.40;99.90
843;DHT22;407;48.884;9.126;2023-07-31T07:07:44;22.60;99.90
843;DHT22;407;48.884;9.126;2023-07-31T07:10:10;22.10;99.90
843;DHT22;407;48.884;9.126;2023-07-31T07:12:35;22.20;99.90
843;DHT22;407;48.884;9.126;2023-07-31T07:15:01;22.20;99.90
843;DHT22;407;48.884;9.126;2023-07-31T07:17:29;22.10;99.90
843;DHT22;407;48.884;9.126;2023-07-31T07:19:56;22.20;99.90
843;DHT22;407;48.884;9.126;2023-07-31T07:22:22;22.30;99.90
843;DHT22;407;48.884;9.126;2023-07-31T07:24:48;22.20;99.90
843;DHT22;407;48.884;9.126;2023-07-31T07:27:13;22.30;99.90
843;DHT22;407;48.884;9.126;2023-07-31T07:29:40;22.10;99.90
843;DHT22;407;48.884;9.126;2023-07-31T07:32:06;21.80;99.90
843;DHT22;407;48.884;9.126;2023-07-31T07:34:31;21.70;99.90
843;DHT22;407;48.884;9.126;2023-07-31T07:36:57;22.10;99.90
843;DHT22;407;48.884;9.126;2023-07-31T07:39:22;22.70;99.90
843;DHT22;407;48.884;9.126;2023-07-31T07:41:48;23.00;99.90
843;DHT22;407;48.884;9.126;2023-07-31T07:44:14;23.10;99.90
843;DHT22;407;48.884;9.126;2023-07-31T07:46:41;23.10;99.90
843;DHT22;407;48.884;9.126;2023-07-31T07:52:01;24.00;99.90
843;DHT22;407;48.884;9.126;2023-07-31T07:54:26;24.90;99.90
843;DHT22;407;48.884;9.126;2023-07-31T07:56:52;25.40;99.90
843;DHT22;407;48.884;9.126;2023-07-31T07:59:18;25.40;99.90
843;DHT22;407;48.884;9.126;2023-07-31T08:01:43;25.50;99.90
843;DHT22;407;48.884;9.126;2023-07-31T08:04:09;25.90;99.90
843;DHT22;407;48.884;9.126;2023-07-31T08:06:34;26.80;99.90
843;DHT22;407;48.884;9.126;2023-07-31T08:09:00;26.60;99.90
843;DHT22;407;48.884;9.126;2023-07-31T08:11:30;26.30;99.90
843;DHT22;407;48.884;9.126;2023-07-31T08:13:56;26.80;99.90
843;DHT22;407;48.884;9.126;2023-07-31T08:16:21;26.60;99.90
843;DHT22;407;48.884;9.126;2023-07-31T08:18:47;26.40;99.90
843;DHT22;407;48.884;9.126;2023-07-31T08:21:14;26.50;99.90
843;DHT22;407;48.884;9.126;2023-07-31T08:23:40;26.50;99.90
843;DHT22;407;48.884;9.126;2023-07-31T08:26:07;26.70;99.90
843;DHT22;407;48.884;9.126;2023-07-31T08:28:34;26.60;99.90
843;DHT22;407;48.884;9.126;2023-07-31T08:31:01;25.40;99.90
843;DHT22;407;48.884;9.126;2023-07-31T08:33:27;24.80;99.90
843;DHT22;407;48.884;9.126;2023-07-31T08:35:52;24.70;99.90
843;DHT22;407;48.884;9.126;2023-07-31T08:38:18;24.60;99.90
843;DHT22;407;48.884;9.126;2023-07-31T08:40:43;24.50;99.90
843;DHT22;407;48.884;9.126;2023-07-31T08:43:09;24.20;99.90
843;DHT22;407;48.884;9.126;2023-07-31T08:45:35;24.00;99.90
843;DHT22;407;48.884;9.126;2023-07-31T08:48:00;23.90;99.90
843;DHT22;407;48.884;9.126;2023-07-31T08:50:26;24.00;99.90
843;DHT22;407;48.884;9.126;2023-07-31T08:52:53;23.70;99.90
843;DHT22;407;48.884;9.126;2023-07-31T08:55:19;23.80;99.90
843;DHT22;407;48.884;9.126;2023-07-31T08:57:51;23.60;99.90
843;DHT22;407;48.884;9.126;2023-07-31T09:00:18;23.20;99.90
843;DHT22;407;48.884;9.126;2023-07-31T09:02:57;23.20;99.90
843;DHT22;407;48.884;9.126;2023-07-31T09:05:26;23.50;99.90
843;DHT22;407;48.884;9.126;2023-07-31T09:07:54;23.60;99.90
843;DHT22;407;48.884;9.126;2023-07-31T09:10:20;23.40;99.90
843;DHT22;407;48.884;9.126;2023-07-31T09:12:46;23.10;99.90
843;DHT22;407;48.884;9.126;2023-07-31T09:15:12;23.30;99.90
843;DHT22;407;48.884;9.126;2023-07-31T09:17:38;23.30;99.90
843;DHT22;407;48.884;9.126;2023-07-31T09:20:14;23.30;99.90
843;DHT22;407;48.884;9.126;2023-07-31T09:22:56;23.50;99.90
843;DHT22;407;48.884;9.126;2023-07-31T09:25:23;24.60;99.90
843;DHT22;407;48.884;9.126;2023-07-31T09:27:58;25.60;99.90
843;DHT22;407;48.884;9.126;2023-07-31T09:30:24;26.90;99.90
843;DHT22;407;48.884;9.126;2023-07-31T09:32:51;27.30;99.90
843;DHT22;407;48.884;9.126;2023-07-31T09:35:32;27.20;99.90
843;DHT22;407;48.884;9.126;2023-07-31T09:38:00;26.40;99.90
843;DHT22;407;48.884;9.126;2023-07-31T09:40:30;25.80;99.90
843;DHT22;407;48.884;9.126;2023-07-31T09:43:00;25.30;99.90
843;DHT22;407;48.884;9.126;2023-07-31T09:45:26;24.80;99.90
843;DHT22;407;48.884;9.126;2023-07-31T09:47:52;24.50;99.90
843;DHT22;407;48.884;9.126;2023-07-31T09:50:20;24.00;99.90
843;DHT22;407;48.884;9.126;2023-07-31T09:52:46;23.70;99.90
843;DHT22;407;48.884;9.126;2023-07-31T09:55:12;23.50;99.90
843;DHT22;407;48.884;9.126;2023-07-31T09:57:57;24.60;99.90
843;DHT22;407;48.884;9.126;2023-07-31T10:00:23;25.30;99.90
843;DHT22;407;48.884;9.126;2023-07-31T10:02:52;26.10;99.90
843;DHT22;407;48.884;9.126;2023-07-31T10:05:19;25.60;99.90
843;DHT22;407;48.884;9.126;2023-07-31T10:07:55;25.80;99.90
843;DHT22;407;48.884;9.126;2023-07-31T10:10:22;25.90;99.90
843;DHT22;407;48.884;9.126;2023-07-31T10:12:49;26.60;99.90
843;DHT22;407;48.884;9.126;2023-07-31T10:15:15;26.70;99.90
843;DHT22;407;48.884;9.126;2023-07-31T10:17:41;27.10;99.90
843;DHT22;407;48.884;9.126;2023-07-31T10:20:08;26.10;99.90
843;DHT22;407;48.884;9.126;2023-07-31T10:22:34;26.80;99.90
843;DHT22;407;48.884;9.126;2023-07-31T10:25:00;27.60;99.90
843;DHT22;407;48.884;9.126;2023-07-31T10:27:26;27.80;99.90
843;DHT22;407;48.884;9.126;2023-07-31T10:29:54;27.20;99.90
843;DHT22;407;48.884;9.126;2023-07-31T10:32:20;26.50;99.90
843;DHT22;407;48.884;9.126;2023-07-31T10:34:47;26.00;99.90
843;DHT22;407;48.884;9.126;2023-07-31T10:37:28;26.30;99.90
843;DHT22;407;48.884;9.126;2023-07-31T10:40:16;26.40;99.90
843;DHT22;407;48.884;9.126;2023-07-31T10:42:49;26.50;99.90
843;DHT22;407;48.884;9.126;2023-07-31T10:45:45;26.80;99.90
843;DHT22;407;48.884;9.126;2023-07-31T10:48:14;26.00;99.90
843;DHT22;407;48.884;9.126;2023-07-31T10:50:58;25.30;99.90
843;DHT22;407;48.884;9.126;2023-07-31T10:53:29;25.60;99.90
843;DHT22;407;48.884;9.126;2023-07-31T10:56:02;25.70;99.90
843;DHT22;407;48.884;9.126;2023-07-31T10:58:28;25.90;99.90
843;DHT22;407;48.884;9.126;2023-07-31T11:00:59;25.90;99.90
843;DHT22;407;48.884;9.126;2023-07-31T11:03:41;25.80;99.90
843;DHT22;407;48.884;9.126;2023-07-31T11:06:08;25.60;99.90
843;DHT22;407;48.884;9.126;2023-07-31T11:08:35;26.00;99.90
843;DHT22;407;48.884;9.126;2023-07-31T11:11:04;26.80;99.90
843;DHT22;407;48.884;9.126;2023-07-31T11:13:31;26.80;99.90
843;DHT22;407;48.884;9.126;2023-07-31T11:15:57;27.30;99.90
843;DHT22;407;48.884;9.126;2023-07-31T11:18:24;27.30;99.90
843;DHT22;407;48.884;9.126;2023-07-31T11:20:51;27.30;99.90
843;DHT22;407;48.884;9.126;2023-07-31T11:23:17;27.10;99.90
843;DHT22;407;48.884;9.126;2023-07-31T11:25:43;27.00;99.90
843;DHT22;407;48.884;9.126;2023-07-31T11:28:14;26.90;99.90
843;DHT22;407;48.884;9.126;2023-07-31T11:30:40;26.80;99.90
843;DHT22;407;48.884;9.126;2023-07-31T11:33:07;26.90;99.90
843;DHT22;407;48.884;9.126;2023-07-31T11:35:41;26.90;99.90
843;DHT22;407;48.884;9.126;2023-07-31T11:38:07;26.00;99.90
843;DHT22;407;48.884;9.126;2023-07-31T11:40:41;25.70;99.90
843;DHT22;407;48.884;9.126;2023-07-31T11:43:07;25.40;99.90
843;DHT22;407;48.884;9.126;2023-07-31T11:45:33;25.60;99.90
843;DHT22;407;48.884;9.126;2023-07-31T11:48:00;25.10;99.90
843;DHT22;407;48.884;9.126;2023-07-31T11:50:26;25.10;99.90
843;DHT22;407;48.884;9.126;2023-07-31T11:53:00;25.20;99.90
843;DHT22;407;48.884;9.126;2023-07-31T11:55:27;25.00;99.90
843;DHT22;407;48.884;9.126;2023-07-31T11:57:55;25.20;99.90
843;DHT22;407;48.884;9.126;2023-07-31T12:00:22;25.20;99.90
843;DHT22;407;48.884;9.126;2023-07-31T12:02:48;25.80;99.90
843;DHT22;407;48.884;9.126;2023-07-31T12:05:15;26.20;99.90
843;DHT22;407;48.884;9.126;2023-07-31T12:07:49;25.60;99.90
843;DHT22;407;48.884;9.126;2023-07-31T12:10:28;25.30;99.90
843;DHT22;407;48.884;9.126;2023-07-31T12:15:34;25.70;99.90
843;DHT22;407;48.884;9.126;2023-07-31T12:18:00;25.00;99.90
843;DHT22;407;48.884;9.126;2023-07-31T12:20:26;24.90;99.90
843;DHT22;407;48.884;9.126;2023-07-31T12:22:51;24.80;99.90
843;DHT22;407;48.884;9.126;2023-07-31T12:25:17;24.80;99.90
843;DHT22;407;48.884;9.126;2023-07-31T12:27:45;25.00;99.90
843;DHT22;407;48.884;9.126;2023-07-31T12:30:33;25.00;99.90
843;DHT22;407;48.884;9.126;2023-07-31T12:33:06;25.40;99.90
843;DHT22;407;48.884;9.126;2023-07-31T12:35:37;25.70;99.90
843;DHT22;407;48.884;9.126;2023-07-31T12:38:03;25.80;99.90
843;DHT22;407;48.884;9.126;2023-07-31T12:40:29;25.90;99.90
843;DHT22;407;48.884;9.126;2023-07-31T12:42:54;25.80;99.90
843;DHT22;407;48.884;9.126;2023-07-31T12:45:20;25.50;99.90
843;DHT22;407;48.884;9.126;2023-07-31T12:47:46;25.30;99.90
843;DHT22;407;48.884;9.126;2023-07-31T12:50:12;25.30;99.90
843;DHT22;407;48.884;9.126;2023-07-31T12:52:38;25.30;99.90
843;DHT22;407;48.884;9.126;2023-07-31T12:55:03;25.00;99.90
843;DHT22;407;48.884;9.126;2023-07-31T12:57:30;24.70;99.90
843;DHT22;407;48.884;9.126;2023-07-31T12:59:55;24.60;99.90
843;DHT22;407;48.884;9.126;2023-07-31T13:02:21;24.60;99.90
843;DHT22;407;48.884;9.126;2023-07-31T13:04:46;24.70;99.90
843;DHT22;407;48.884;9.126;2023-07-31T13:07:12;25.00;99.90
843;DHT22;407;48.884;9.126;2023-07-31T13:09:38;25.10;99.90
843;DHT22;407;48.884;9.126;2023-07-31T13:12:03;25.30;99.90
843;DHT22;407;48.884;9.126;2023-07-31T13:14:29;25.30;99.90
843;DHT22;407;48.884;9.126;2023-07-31T13:16:54;25.20;99.90
843;DHT22;407;48.884;9.126;2023-07-31T13:19:20;25.40;99.90
843;DHT22;407;48.884;9.126;2023-07-31T13:21:45;25.10;99.90
843;DHT22;407;48.884;9.126;2023-07-31T13:24:11;24.60;99.90
843;DHT22;407;48.884;9.126;2023-07-31T13:26:36;24.30;99.90
843;DHT22;407;48.884;9.126;2023-07-31T13:29:02;24.50;99.90
843;DHT22;407;48.884;9.126;2023-07-31T13:31:28;24.80;99.90
843;DHT22;407;48.884;9.126;2023-07-31T13:33:53;25.00;99.90
843;DHT22;407;48.884;9.126;2023-07-31T13:36:19;25.10;99.90
843;DHT22;407;48.884;9.126;2023-07-31T13:38:44;25.20;99.90
843;DHT22;407;48.884;9.126;2023-07-31T13:41:10;25.20;99.90
843;DHT22;407;48.884;9.126;2023-07-31T13:43:35;25.40;99.90
843;DHT22;407;48.884;9.126;2023-07-31T13:46:01;25.30;99.90
843;DHT22;407;48.884;9.126;2023-07-31T13:48:34;25.30;99.90
843;DHT22;407;48.884;9.126;2023-07-31T13:51:00;25.20;99.90
843;DHT22;407;48.884;9.126;2023-07-31T13:53:25;25.20;99.90
843;DHT22;407;48.884;9.126;2023-07-31T13:55:51;25.00;99.90
843;DHT22;407;48.884;9.126;2023-07-31T13:58:17;25.20;99.90
843;DHT22;407;48.884;9.126;2023-07-31T14:00:43;25.10;99.90
843;DHT22;407;48.884;9.126;2023-07-31T14:03:08;25.20;99.90
843;DHT22;407;48.884;9.126;2023-07-31T14:05:35;25.50;99.90
843;DHT22;407;48.884;9.126;2023-07-31T14:08:00;25.60;99.90
843;DHT22;407;48.884;9.126;2023-07-31T14:10:26;25.80;99.90
843;DHT22;407;48.884;9.126;2023-07-31T14:12:51;25.70;99.90
843;DHT22;407;48.884;9.126;2023-07-31T14:15:17;26.00;99.90
843;DHT22;407;48.884;9.126;2023-07-31T14:17:42;26.00;99.90
843;DHT22;407;48.884;9.126;2023-07-31T14:20:08;26.20;99.90
843;DHT22;407;48.884;9.126;2023-07-31T14:22:34;26.40;99.90
843;DHT22;407;48.884;9.126;2023-07-31T14:25:00;26.50;99.90
843;DHT22;407;48.884;9.126;2023-07-31T14:27:26;26.00;99.90
843;DHT22;407;48.884;9.126;2023-07-31T14:29:51;26.00;99.90
843;DHT22;407;48.884;9.126;2023-07-31T14:32:17;26.00;99.90
843;DHT22;407;48.884;9.126;2023-07-31T14:34:42;25.90;99.90
843;DHT22;407;48.884;9.126;2023-07-31T14:37:08;25.90;99.90
843;DHT22;407;48.884;9.126;2023-07-31T14:39:33;25.90;99.90
843;DHT22;407;48.884;9.126;2023-07-31T14:42:00;26.30;99.90
843;DHT22;407;48.884;9.126;2023-07-31T14:44:28;26.40;99.90
843;DHT22;407;48.884;9.126;2023-07-31T14:46:54;26.20;99.90
843;DHT22;407;48.884;9.126;2023-07-31T14:49:19;26.10;99.90
843;DHT22;407;48.884;9.126;2023-07-31T14:51:45;26.20;99.90
843;DHT22;407;48.884;9.126;2023-07-31T14:54:11;26.60;99.90
843;DHT22;407;48.884;9.126;2023-07-31T14:56:36;26.80;99.90
843;DHT22;407;48.884;9.126;2023-07-31T14:59:02;26.80;99.90
843;DHT22;407;48.884;9.126;2023-07-31T15:01:27;26.30;99.90
843;DHT22;407;48.884;9.126;2023-07-31T15:03:53;26.20;99.90
843;DHT22;407;48.884;9.126;2023-07-31T15:06:18;26.00;99.90
843;DHT22;407;48.884;9.126;2023-07-31T15:08:44;26.10;99.90
843;DHT22;407;48.884;9.126;2023-07-31T15:11:10;26.10;99.90
843;DHT22;407;48.884;9.126;2023-07-31T15:13:35;26.10;99.90
843;DHT22;407;48.884;9.126;2023-07-31T15:16:01;26.00;99.90
843;DHT22;407;48.884;9.126;2023-07-31T15:18:26;25.90;99.90
843;DHT22;407;48.884;9.126;2023-07-31T15:20:53;25.70;99.90
843;DHT22;407;48.884;9.126;2023-07-31T15:23:18;25.70;99.90
843;DHT22;407;48.884;9.126;2023-07-31T15:25:44;25.80;99.90
843;DHT22;407;48.884;9.126;2023-07-31T15:28:09;25.80;99.90
843;DHT22;407;48.884;9.126;2023-07-31T15:30:36;25.70;99.90
843;DHT22;407;48.884;9.126;2023-07-31T15:33:03;25.80;99.90
843;DHT22;407;48.884;9.126;2023-07-31T15:35:28;25.60;99.90
843;DHT22;407;48.884;9.126;2023-07-31T15:37:54;25.50;99.90
843;DHT22;407;48.884;9.126;2023-07-31T15:40:19;25.40;99.90
843;DHT22;407;48.884;9.126;2023-07-31T15:42:45;25.10;99.90
843;DHT22;407;48.884;9.126;2023-07-31T15:45:10;24.80;99.90
843;DHT22;407;48.884;9.126;2023-07-31T15:47:36;25.00;99.90
843;DHT22;407;48.884;9.126;2023-07-31T15:50:02;25.00;99.90
843;DHT22;407;48.884;9.126;2023-07-31T15:52:29;25.00;99.90
843;DHT22;407;48.884;9.126;2023-07-31T15:54:55;25.10;99.90
843;DHT22;407;48.884;9.126;2023-07-31T15:57:20;25.10;99.90
843;DHT22;407;48.884;9.126;2023-07-31T15:59:46;24.90;99.90
843;DHT22;407;48.884;9.126;2023-07-31T16:02:12;24.70;99.90
843;DHT22;407;48.884;9.126;2023-07-31T16:04:37;24.50;99.90
843;DHT22;407;48.884;9.126;2023-07-31T16:07:03;24.50;99.90
843;DHT22;407;48.884;9.126;2023-07-31T16:09:29;24.50;99.90
843;DHT22;407;48.884;9.126;2023-07-31T16:11:59;24.70;99.90
843;DHT22;407;48.884;9.126;2023-07-31T16:14:25;24.50;99.90
843;DHT22;407;48.884;9.126;2023-07-31T16:16:50;24.60;99.90
843;DHT22;407;48.884;9.126;2023-07-31T16:19:16;24.60;99.90
843;DHT22;407;48.884;9.126;2023-07-31T16:21:42;24.50;99.90
843;DHT22;407;48.884;9.126;2023-07-31T16:24:07;24.60;99.90
843;DHT22;407;48.884;9.126;2023-07-31T16:26:33;24.70;99.90
843;DHT22;407;48.884;9.126;2023-07-31T16:28:58;24.70;99.90
843;DHT22;407;48.884;9.126;2023-07-31T16:31:24;24.70;99.90
843;DHT22;407;48.884;9.126;2023-07-31T16:33:51;24.80;99.90
843;DHT22;407;48.884;9.126;2023-07-31T16:36:16;25.00;99.90
843;DHT22;407;48.884;9.126;2023-07-31T16:38:44;25.00;99.90
843;DHT22;407;48.884;9.126;2023-07-31T16:41:10;24.60;99.90
843;DHT22;407;48.884;9.126;2023-07-31T16:43:35;24.50;99.90
843;DHT22;407;48.884;9.126;2023-07-31T16:46:01;24.40;99.90
843;DHT22;407;48.884;9.126;2023-07-31T16:48:26;24.50;99.90
843;DHT22;407;48.884;9.126;2023-07-31T16:50:52;24.40;99.90